createdAt,value
2023-09-11T00:01:16.451Z,8.70
2023-09-11T00:04:04.026Z,7.32
2023-09-11T00:06:51.350Z,10.18
2023-09-11T00:09:38.576Z,7.47
2023-09-11T00:12:25.800Z,8.07
2023-09-11T00:15:13.013Z,8.88
2023-09-11T00:18:00.852Z,8.20
2023-09-11T00:20:49.094Z,7.47
2023-09-11T00:23:36.346Z,11.73
2023-09-11T00:26:23.605Z,7.70
2023-09-11T00:29:13.202Z,8.27
2023-09-11T00:32:00.343Z,10.50
2023-09-11T00:34:47.623Z,12.63
2023-09-11T00:37:34.830Z,8.93
2023-09-11T00:40:22.065Z,9.95
2023-09-11T00:43:09.312Z,13.13
2023-09-11T00:45:58.088Z,7.18
2023-09-11T00:48:45.560Z,9.18
2023-09-11T00:51:32.964Z,9.52
2023-09-11T00:54:22.262Z,10.50
2023-09-11T00:57:09.582Z,13.02
2023-09-11T00:59:57.060Z,11.63
2023-09-11T01:02:44.354Z,9.32
2023-09-11T01:05:32.178Z,7.65
2023-09-11T01:08:20.498Z,8.73
2023-09-11T01:11:08.102Z,7.68
2023-09-11T01:13:55.689Z,8.85
2023-09-11T01:17:10.567Z,7.38
2023-09-11T01:20:23.003Z,8.68
2023-09-11T01:23:58.626Z,10.10
2023-09-11T01:27:04.607Z,7.88
2023-09-11T01:29:53.204Z,8.27
2023-09-11T01:32:42.878Z,9.13
2023-09-11T01:35:30.742Z,8.88
2023-09-11T01:38:18.842Z,12.50
2023-09-11T01:41:08.384Z,7.85
2023-09-11T01:43:59.985Z,11.25
2023-09-11T01:46:48.771Z,8.85
2023-09-11T01:49:39.804Z,7.05
2023-09-11T01:52:28.772Z,8.40
2023-09-11T01:55:16.808Z,12.23
2023-09-11T01:58:04.416Z,9.25
2023-09-11T02:00:51.605Z,9.73
2023-09-11T02:03:41.940Z,11.50
2023-09-11T02:06:29.445Z,8.13
2023-09-11T02:09:17.927Z,11.35
2023-09-11T02:12:05.526Z,9.00
2023-09-11T02:14:54.328Z,10.13
2023-09-11T02:17:41.649Z,10.52
2023-09-11T02:20:28.965Z,10.50
2023-09-11T02:23:19.410Z,9.27
2023-09-11T02:26:06.700Z,9.68
2023-09-11T02:28:53.932Z,11.18
2023-09-11T02:31:41.449Z,11.68
2023-09-11T02:34:28.834Z,8.88
2023-09-11T02:37:16.046Z,10.02
2023-09-11T02:40:04.353Z,8.77
2023-09-11T02:42:51.636Z,9.98
2023-09-11T02:45:39.511Z,13.82
2023-09-11T02:48:26.877Z,9.43
2023-09-11T02:51:15.001Z,9.25
2023-09-11T02:54:02.454Z,10.52
2023-09-11T02:56:50.328Z,12.10
2023-09-11T02:59:39.158Z,9.38
2023-09-11T03:02:26.604Z,8.88
2023-09-11T03:05:14.181Z,12.93
2023-09-11T03:08:01.841Z,11.98
2023-09-11T03:10:49.336Z,9.48
2023-09-11T03:13:38.142Z,8.88
2023-09-11T03:16:25.586Z,12.38
2023-09-11T03:19:16.830Z,11.63
2023-09-11T03:22:04.404Z,11.40
2023-09-11T03:24:52.266Z,13.15
2023-09-11T03:27:39.555Z,11.35
2023-09-11T03:30:27.266Z,12.50
2023-09-11T03:33:16.028Z,12.48
2023-09-11T03:36:03.901Z,13.88
2023-09-11T03:38:51.179Z,11.77
2023-09-11T03:41:39.048Z,9.10
2023-09-11T03:44:26.425Z,11.32
2023-09-11T03:47:13.847Z,12.10
2023-09-11T03:50:03.607Z,11.07
2023-09-11T03:52:52.078Z,10.38
2023-09-11T03:55:39.693Z,10.38
2023-09-11T03:58:27.089Z,10.20
2023-09-11T04:01:14.466Z,9.80
2023-09-11T04:04:02.503Z,10.57
2023-09-11T04:06:50.252Z,13.63
2023-09-11T04:09:37.802Z,13.48
2023-09-11T04:12:25.183Z,9.93
2023-09-11T04:15:12.712Z,13.23
2023-09-11T04:18:01.020Z,10.80
2023-09-11T04:20:48.355Z,9.68
2023-09-11T04:23:36.143Z,9.52
2023-09-11T04:26:24.099Z,10.43
2023-09-11T04:29:14.623Z,9.98
2023-09-11T04:32:03.496Z,10.15
2023-09-11T04:34:50.750Z,11.73
2023-09-11T04:37:38.753Z,11.13
2023-09-11T04:40:26.412Z,11.43
2023-09-11T04:43:13.729Z,10.27
2023-09-11T04:46:01.702Z,13.07
2023-09-11T04:48:49.484Z,12.10
2023-09-11T04:51:36.897Z,12.07
2023-09-11T04:54:24.130Z,11.68
2023-09-11T04:57:11.451Z,14.73
2023-09-11T04:59:58.994Z,10.55
2023-09-11T05:02:48.469Z,12.30
2023-09-11T05:05:42.825Z,11.63
2023-09-11T05:08:45.563Z,13.98
2023-09-11T05:11:39.340Z,16.90
2023-09-11T05:14:28.076Z,13.25
2023-09-11T05:17:15.503Z,14.15
2023-09-11T05:20:02.779Z,13.20
2023-09-11T05:22:50.090Z,12.35
2023-09-11T05:25:37.991Z,14.20
2023-09-11T05:28:25.398Z,12.93
2023-09-11T05:31:12.631Z,13.15
2023-09-11T05:33:59.818Z,12.40
2023-09-11T05:36:47.257Z,15.80
2023-09-11T05:39:34.526Z,11.95
2023-09-11T05:42:21.740Z,9.90
2023-09-11T05:45:09.397Z,10.00
2023-09-11T05:47:56.752Z,10.25
2023-09-11T05:50:44.907Z,10.90
2023-09-11T05:53:32.396Z,9.23
2023-09-11T05:56:19.890Z,12.20
2023-09-11T05:59:08.520Z,9.38
2023-09-11T06:01:56.162Z,10.38
2023-09-11T06:04:43.535Z,14.77
2023-09-11T06:07:30.970Z,11.18
2023-09-11T06:10:18.318Z,9.48
2023-09-11T06:13:05.702Z,10.63
2023-09-11T06:15:53.217Z,8.73
2023-09-11T06:18:40.659Z,9.23
2023-09-11T06:21:28.652Z,8.75
2023-09-11T06:24:16.124Z,11.90
2023-09-11T06:27:07.218Z,9.63
2023-09-11T06:29:54.936Z,10.40
2023-09-11T06:32:43.253Z,11.30
2023-09-11T06:35:30.577Z,11.68
2023-09-11T06:38:18.014Z,11.00
2023-09-11T06:41:05.573Z,11.90
2023-09-11T06:43:52.752Z,8.73
2023-09-11T06:46:39.921Z,8.43
2023-09-11T06:49:27.286Z,9.85
2023-09-11T06:52:14.553Z,7.50
2023-09-11T06:55:01.691Z,7.13
2023-09-11T06:57:59.951Z,8.82
2023-09-11T07:00:47.749Z,12.80
2023-09-11T07:03:35.360Z,12.00
2023-09-11T07:06:23.013Z,13.60
2023-09-11T07:09:10.584Z,10.65
2023-09-11T07:11:57.955Z,8.50
2023-09-11T07:14:45.246Z,10.32
2023-09-11T07:17:32.702Z,10.75
2023-09-11T07:20:20.288Z,10.00
2023-09-11T07:23:07.590Z,7.85
2023-09-11T07:25:57.771Z,8.68
2023-09-11T07:29:11.357Z,7.60
2023-09-11T07:32:00.424Z,8.60
2023-09-11T07:34:47.933Z,11.20
2023-09-11T07:37:35.552Z,9.38
2023-09-11T07:40:23.357Z,11.07
2023-09-11T07:43:12.193Z,8.30
2023-09-11T07:45:59.608Z,8.07
2023-09-11T07:48:46.980Z,8.77
2023-09-11T07:51:34.393Z,8.02
2023-09-11T07:54:22.324Z,9.10
2023-09-11T07:57:09.637Z,7.68
2023-09-11T07:59:57.660Z,6.88
2023-09-11T08:02:45.092Z,8.23
2023-09-11T08:05:33.014Z,10.55
2023-09-11T08:08:20.655Z,9.23
2023-09-11T08:11:20.407Z,11.82
2023-09-11T08:14:08.472Z,8.90
2023-09-11T08:16:55.780Z,8.63
2023-09-11T08:19:43.054Z,10.15
2023-09-11T08:22:30.315Z,10.77
2023-09-11T08:25:17.866Z,8.13
2023-09-11T08:28:05.843Z,9.82
2023-09-11T08:30:53.059Z,10.32
2023-09-11T08:33:54.402Z,10.65
2023-09-11T08:36:44.381Z,11.60
2023-09-11T08:39:33.241Z,9.95
2023-09-11T08:42:20.652Z,6.30
2023-09-11T08:45:08.615Z,7.30
2023-09-11T08:47:58.106Z,8.32
2023-09-11T08:51:09.711Z,10.23
2023-09-11T08:53:58.081Z,10.00
2023-09-11T08:56:46.902Z,9.05
2023-09-11T08:59:39.101Z,9.50
2023-09-11T09:02:28.208Z,11.13
2023-09-11T09:05:17.252Z,8.23
2023-09-11T09:08:05.911Z,7.50
2023-09-11T09:10:53.897Z,10.50
2023-09-11T09:13:41.439Z,9.48
2023-09-11T09:16:28.998Z,10.88
2023-09-11T09:19:16.352Z,9.07
2023-09-11T09:22:03.698Z,8.85
2023-09-11T09:24:55.600Z,8.25
2023-09-11T09:27:42.973Z,8.05
2023-09-11T09:30:32.347Z,8.88
2023-09-11T09:33:20.521Z,10.02
2023-09-11T09:36:08.895Z,10.32
2023-09-11T09:38:56.210Z,11.60
2023-09-11T09:41:54.937Z,8.68
2023-09-11T09:44:45.574Z,7.25
2023-09-11T09:47:33.057Z,7.70
2023-09-11T09:50:20.661Z,17.52
2023-09-11T09:53:08.006Z,9.90
2023-09-11T09:55:57.666Z,9.02
2023-09-11T09:58:46.878Z,9.25
2023-09-11T10:01:45.224Z,10.27
2023-09-11T10:04:33.085Z,10.43
2023-09-11T10:07:43.600Z,13.07
2023-09-11T10:10:31.871Z,6.18
2023-09-11T10:13:19.177Z,9.63
2023-09-11T10:16:06.725Z,10.48
2023-09-11T10:18:55.779Z,10.90
2023-09-11T10:21:43.168Z,10.43
2023-09-11T10:24:32.345Z,8.85
2023-09-11T10:27:20.060Z,11.50
2023-09-11T10:30:10.283Z,15.52
2023-09-11T10:33:10.320Z,13.02
2023-09-11T10:36:03.801Z,22.23
2023-09-11T10:38:54.527Z,13.98
2023-09-11T10:41:42.559Z,16.95
2023-09-11T10:44:30.503Z,12.98
2023-09-11T10:47:22.133Z,18.77
2023-09-11T10:50:11.266Z,16.63
2023-09-11T10:52:59.162Z,13.60
2023-09-11T10:55:46.631Z,8.70
2023-09-11T10:58:35.561Z,13.57
2023-09-11T11:01:24.142Z,12.65
2023-09-11T11:04:16.413Z,15.40
2023-09-11T11:07:04.112Z,15.60
2023-09-11T11:09:54.186Z,15.07
2023-09-11T11:12:45.790Z,17.65
2023-09-11T11:15:33.162Z,13.27
2023-09-11T11:18:28.095Z,12.45
2023-09-11T11:21:15.888Z,17.05
2023-09-11T11:24:05.560Z,22.13
2023-09-11T11:26:58.144Z,22.42
2023-09-11T11:29:45.589Z,14.68
2023-09-11T11:32:35.962Z,12.13
2023-09-11T11:35:23.750Z,11.07
2023-09-11T11:38:14.457Z,9.77
2023-09-11T11:41:04.529Z,9.70
2023-09-11T11:46:40.826Z,13.75
2023-09-11T11:49:29.712Z,14.98
2023-09-11T11:52:17.050Z,9.63
2023-09-11T11:55:19.474Z,12.13
2023-09-11T11:58:10.225Z,10.75
2023-09-11T12:01:02.867Z,13.27
2023-09-11T12:03:52.582Z,11.23
2023-09-11T12:06:40.287Z,11.48
2023-09-11T12:09:27.825Z,12.10
2023-09-11T12:12:15.358Z,12.27
2023-09-11T12:15:04.104Z,11.20
2023-09-11T12:17:51.704Z,13.65
2023-09-11T12:20:39.149Z,11.95
2023-09-11T12:23:27.503Z,12.85
2023-09-11T12:26:14.956Z,14.50
2023-09-11T12:29:03.034Z,14.73
2023-09-11T12:31:51.596Z,14.57
2023-09-11T12:34:48.475Z,14.65
2023-09-11T12:37:41.182Z,15.25
2023-09-11T12:40:28.435Z,10.50
2023-09-11T12:43:16.533Z,12.73
2023-09-11T12:46:04.895Z,12.63
2023-09-11T12:48:53.038Z,15.63
2023-09-11T12:51:40.935Z,18.88
2023-09-11T12:54:33.100Z,16.20
2023-09-11T12:57:21.453Z,15.05
2023-09-11T13:00:12.836Z,14.65
2023-09-11T13:03:01.708Z,11.07
2023-09-11T13:05:49.300Z,14.10
2023-09-11T13:08:37.416Z,14.10
2023-09-11T13:11:25.004Z,12.38
2023-09-11T13:14:15.765Z,17.05
2023-09-11T13:17:05.043Z,13.63
2023-09-11T13:19:52.508Z,9.77
2023-09-11T13:22:42.870Z,16.73
2023-09-11T13:25:30.498Z,15.32
2023-09-11T13:28:17.953Z,13.15
2023-09-11T13:31:05.250Z,11.82
2023-09-11T13:33:52.641Z,12.75
2023-09-11T13:36:40.251Z,17.88
2023-09-11T13:39:27.621Z,13.98
2023-09-11T13:42:14.965Z,10.30
2023-09-11T13:45:02.308Z,15.35
2023-09-11T13:47:51.192Z,13.13
2023-09-11T13:50:38.689Z,14.98
2023-09-11T13:53:25.893Z,16.30
2023-09-11T13:56:13.685Z,14.95
2023-09-11T13:59:01.044Z,12.88
2023-09-11T14:01:48.291Z,14.10
2023-09-11T14:04:36.344Z,21.95
2023-09-11T14:07:25.261Z,15.48
2023-09-11T14:10:12.683Z,17.52
2023-09-11T14:13:00.091Z,15.40
2023-09-11T14:15:48.246Z,15.52
2023-09-11T14:18:35.685Z,12.32
2023-09-11T14:21:23.035Z,19.50
2023-09-11T14:24:10.541Z,12.75
2023-09-11T14:26:57.767Z,18.70
2023-09-11T14:29:45.353Z,11.55
2023-09-11T14:32:32.800Z,19.00
2023-09-11T14:35:20.068Z,13.45
2023-09-11T14:38:07.433Z,16.08
2023-09-11T14:40:55.764Z,16.42
2023-09-11T14:43:43.299Z,14.32
2023-09-11T14:46:30.842Z,14.80
2023-09-11T14:49:18.137Z,11.80
2023-09-11T14:52:05.761Z,9.98
2023-09-11T14:54:55.092Z,13.85
2023-09-11T14:57:42.628Z,10.68
2023-09-11T15:00:29.947Z,12.30
2023-09-11T15:03:17.316Z,14.70
2023-09-11T15:06:04.841Z,15.20
2023-09-11T15:08:52.273Z,14.73
2023-09-11T15:11:39.473Z,10.32
2023-09-11T15:14:26.908Z,15.23
2023-09-11T15:17:14.377Z,12.75
2023-09-11T15:20:01.656Z,16.63
2023-09-11T15:22:48.839Z,12.43
2023-09-11T15:25:36.088Z,19.67
2023-09-11T15:28:23.280Z,14.13
2023-09-11T15:31:10.608Z,12.88
2023-09-11T15:33:58.331Z,12.98
2023-09-11T15:36:45.530Z,15.15
2023-09-11T15:39:32.774Z,12.35
2023-09-11T15:42:20.125Z,14.68
2023-09-11T15:45:08.087Z,11.65
2023-09-11T15:47:59.423Z,13.18
2023-09-11T15:50:51.851Z,12.23
2023-09-11T15:53:39.940Z,13.10
2023-09-11T15:56:27.259Z,20.42
2023-09-11T15:59:14.456Z,14.20
2023-09-11T16:02:01.658Z,17.92
2023-09-11T16:04:50.857Z,13.63
2023-09-11T16:07:38.445Z,18.35
2023-09-11T16:10:25.810Z,13.90
2023-09-11T16:13:13.112Z,12.57
2023-09-11T16:16:00.695Z,13.27
2023-09-11T16:18:48.208Z,20.50
2023-09-11T16:21:40.848Z,15.60
2023-09-11T16:24:28.900Z,20.88
2023-09-11T16:27:16.394Z,12.65
2023-09-11T16:30:04.043Z,15.20
2023-09-11T16:32:58.464Z,14.95
2023-09-11T16:35:45.827Z,12.15
2023-09-11T16:38:33.206Z,14.23
2023-09-11T16:41:20.420Z,12.07
2023-09-11T16:44:07.646Z,13.88
2023-09-11T16:46:54.981Z,11.85
2023-09-11T16:49:42.217Z,13.00
2023-09-11T16:52:29.618Z,15.80
2023-09-11T16:55:16.790Z,12.73
2023-09-11T16:58:04.185Z,13.90
2023-09-11T17:00:51.404Z,12.32
2023-09-11T17:03:38.713Z,12.38
2023-09-11T17:06:26.012Z,12.90
2023-09-11T17:09:13.403Z,10.55
2023-09-11T17:12:00.802Z,14.27
2023-09-11T17:14:48.170Z,10.73
2023-09-11T17:17:36.131Z,16.98
2023-09-11T17:20:23.883Z,11.73
2023-09-11T17:23:12.717Z,15.68
2023-09-11T17:25:59.947Z,17.38
2023-09-11T17:28:47.362Z,20.13
2023-09-11T17:31:34.537Z,18.25
2023-09-11T17:34:23.631Z,20.15
2023-09-11T17:37:11.014Z,16.10
2023-09-11T17:39:58.263Z,16.23
2023-09-11T17:42:45.786Z,15.68
2023-09-11T17:45:34.853Z,13.65
2023-09-11T17:48:22.115Z,15.43
2023-09-11T17:51:09.570Z,16.73
2023-09-11T17:53:56.890Z,13.95
2023-09-11T17:56:44.112Z,20.10
2023-09-11T17:59:31.304Z,14.65
2023-09-11T18:02:18.478Z,14.13
2023-09-11T18:05:06.177Z,10.93
2023-09-11T18:07:53.301Z,12.30
2023-09-11T18:10:40.595Z,12.25
2023-09-11T18:13:27.786Z,10.60
2023-09-11T18:16:14.981Z,17.52
2023-09-11T18:19:02.264Z,19.55
2023-09-11T18:21:49.564Z,10.18
2023-09-11T18:24:38.729Z,11.25
2023-09-11T18:27:26.394Z,13.95
2023-09-11T18:30:14.181Z,19.00
2023-09-11T18:33:02.686Z,19.42
2023-09-11T18:35:51.117Z,22.42
2023-09-11T18:38:38.586Z,11.93
2023-09-11T18:41:29.364Z,19.52
2023-09-11T18:44:16.615Z,9.55
2023-09-11T18:47:03.970Z,12.43
2023-09-11T18:49:52.672Z,14.35
2023-09-11T18:52:40.050Z,12.30
2023-09-11T18:55:32.297Z,13.85
2023-09-11T18:58:19.562Z,15.35
2023-09-11T19:01:06.920Z,13.80
2023-09-11T19:03:54.336Z,15.45
2023-09-11T19:06:44.548Z,12.98
2023-09-11T19:09:33.323Z,9.20
2023-09-11T19:12:20.614Z,13.00
2023-09-11T19:15:08.043Z,12.88
2023-09-11T19:17:55.560Z,18.98
2023-09-11T19:20:43.078Z,13.63
2023-09-11T19:23:30.260Z,14.65
2023-09-11T19:26:17.536Z,14.98
2023-09-11T19:29:04.983Z,23.02
2023-09-11T19:31:52.296Z,16.92
2023-09-11T19:34:39.597Z,18.42
2023-09-11T19:37:26.873Z,18.85
2023-09-11T19:40:14.199Z,19.23
2023-09-11T19:43:01.548Z,17.50
2023-09-11T19:45:48.757Z,15.65
2023-09-11T19:48:37.369Z,12.63
2023-09-11T19:51:24.725Z,12.55
2023-09-11T19:54:17.421Z,14.07
2023-09-11T19:57:05.377Z,18.77
2023-09-11T19:59:53.092Z,19.55
2023-09-11T20:02:40.446Z,11.95
2023-09-11T20:05:27.909Z,14.50
2023-09-11T20:08:15.122Z,16.77
2023-09-11T20:11:02.442Z,13.75
2023-09-11T20:13:49.838Z,17.77
2023-09-11T20:16:37.245Z,13.82
2023-09-11T20:19:24.397Z,16.58
2023-09-11T20:22:12.441Z,22.15
2023-09-11T20:24:59.875Z,17.95
2023-09-11T20:27:47.150Z,14.45
2023-09-11T20:30:37.356Z,13.15
2023-09-11T20:33:24.972Z,13.18
2023-09-11T20:36:16.603Z,25.30
2023-09-11T20:39:04.037Z,12.07
2023-09-11T20:41:51.801Z,15.68
2023-09-11T20:44:39.129Z,16.42
2023-09-11T20:47:26.545Z,22.95
2023-09-11T20:50:13.920Z,20.33
2023-09-11T20:53:01.185Z,18.98
2023-09-11T20:55:48.456Z,34.95
2023-09-11T20:58:36.463Z,34.85
2023-09-11T21:01:23.753Z,28.58
2023-09-11T21:04:11.591Z,28.50
2023-09-11T21:06:59.064Z,28.88
2023-09-11T21:09:46.370Z,28.25
2023-09-11T21:12:33.652Z,36.03
2023-09-11T21:15:23.911Z,27.63
2023-09-11T21:18:11.305Z,25.25
2023-09-11T21:20:58.594Z,18.02
2023-09-11T21:23:46.027Z,18.23
2023-09-11T21:26:34.247Z,17.65
2023-09-11T21:29:21.561Z,17.13
2023-09-11T21:32:08.745Z,11.80
2023-09-11T21:34:55.960Z,16.85
2023-09-11T21:37:43.300Z,13.90
2023-09-11T21:40:30.475Z,21.98
2023-09-11T21:43:17.681Z,17.17
2023-09-11T21:46:04.827Z,11.77
2023-09-11T21:48:52.111Z,13.35
2023-09-11T21:51:39.376Z,10.50
2023-09-11T21:54:27.912Z,8.45
2023-09-11T21:57:15.247Z,14.27
2023-09-11T22:00:07.024Z,14.50
2023-09-11T22:02:57.967Z,11.02
2023-09-11T22:05:48.306Z,16.02
2023-09-11T22:08:35.616Z,17.52
2023-09-11T22:11:23.950Z,19.05
2023-09-11T22:14:11.297Z,13.63
2023-09-11T22:16:58.502Z,14.35
2023-09-11T22:19:45.903Z,17.05
2023-09-11T22:22:35.296Z,19.92
2023-09-11T22:25:22.513Z,14.50
2023-09-11T22:28:09.712Z,12.70
2023-09-11T22:30:56.894Z,11.40
2023-09-11T22:33:44.481Z,17.45
2023-09-11T22:36:31.878Z,15.02
2023-09-11T22:39:19.176Z,18.27
2023-09-11T22:42:06.551Z,17.30
2023-09-11T23:03:44.941Z,17.05
2023-09-11T23:06:36.638Z,12.43
2023-09-11T23:09:24.781Z,17.23
2023-09-11T23:12:12.043Z,16.80
2023-09-11T23:14:59.292Z,16.67
2023-09-11T23:17:46.487Z,18.20
2023-09-11T23:20:33.967Z,17.52
2023-09-11T23:23:21.300Z,14.60
2023-09-11T23:26:08.609Z,15.93
2023-09-11T23:28:55.810Z,12.25
2023-09-11T23:31:43.129Z,15.32
2023-09-11T23:34:30.389Z,10.45
2023-09-11T23:37:17.545Z,14.95
2023-09-11T23:40:05.714Z,15.50
2023-09-11T23:42:52.921Z,19.02
2023-09-11T23:45:40.272Z,12.95
2023-09-11T23:48:27.717Z,14.25
2023-09-11T23:51:14.959Z,12.63
2023-09-11T23:54:02.268Z,14.02
2023-09-11T23:56:49.469Z,19.95
2023-09-11T23:59:36.650Z,14.88
